Terminal Aerodrome Forecast
Issued by NWS

Home | Current Version | Previous Version | Text Only | Print | Product List | Glossary On
Versions: 1 2 3 4 5 6 7 8 9 10 11 12 13 14 15 16 17 18 19 20 21 22 23 24
000
FTUS44 KHGX 181740
TAFSGR
TAF
KSGR 181740Z 1818/1918 06005KT 6SM -RA BR VCSH OVC015
     FM182200 10005KT 6SM -SHRA BR VCSH OVC010
     FM190400 13004KT 5SM -DZ BR OVC007
      TEMPO 1908/1912 1SM BR OVC004
     FM191600 17008KT 6SM -SHRA VCSH BKN008 OVC012=

USA.gov is the U.S. government's official web portal to all federal, state and local government web resources and services.